sensor_id;sensor_type;location;lat;lon;timestamp;temperature;humidity
23100;DHT22;53791;50.696;4.396;2023-03-17T00:01:17;11.50;99.90
23100;DHT22;53791;50.696;4.396;2023-03-17T00:03:46;11.50;99.90
23100;DHT22;53791;50.696;4.396;2023-03-17T00:06:23;11.40;99.90
23100;DHT22;53791;50.696;4.396;2023-03-17T00:08:46;11.40;99.90
23100;DHT22;53791;50.696;4.396;2023-03-17T00:11:15;11.30;99.90
23100;DHT22;53791;50.696;4.396;2023-03-17T00:13:44;11.30;99.90
23100;DHT22;53791;50.696;4.396;2023-03-17T00:16:24;11.30;99.90
23100;DHT22;53791;50.696;4.396;2023-03-17T00:18:49;11.20;99.90
23100;DHT22;53791;50.696;4.396;2023-03-17T00:21:24;11.20;99.90
23100;DHT22;53791;50.696;4.396;2023-03-17T00:23:49;11.20;99.90
23100;DHT22;53791;50.696;4.396;2023-03-17T00:26:18;11.20;99.90
23100;DHT22;53791;50.696;4.396;2023-03-17T00:28:46;11.10;99.90
23100;DHT22;53791;50.696;4.396;2023-03-17T00:31:16;11.00;99.90
23100;DHT22;53791;50.696;4.396;2023-03-17T00:33:47;11.00;99.90
23100;DHT22;53791;50.696;4.396;2023-03-17T00:36:17;11.00;99.90
23100;DHT22;53791;50.696;4.396;2023-03-17T00:38:45;11.00;99.90
23100;DHT22;53791;50.696;4.396;2023-03-17T00:41:14;11.00;99.90
23100;DHT22;53791;50.696;4.396;2023-03-17T00:43:41;11.00;99.90
23100;DHT22;53791;50.696;4.396;2023-03-17T00:46:27;11.00;99.90
23100;DHT22;53791;50.696;4.396;2023-03-17T00:48:56;11.00;99.90
23100;DHT22;53791;50.696;4.396;2023-03-17T00:51:25;11.00;99.90
23100;DHT22;53791;50.696;4.396;2023-03-17T00:53:53;10.90;99.90
23100;DHT22;53791;50.696;4.396;2023-03-17T00:56:20;10.90;99.90
23100;DHT22;53791;50.696;4.396;2023-03-17T00:58:48;10.90;99.90
23100;DHT22;53791;50.696;4.396;2023-03-17T01:01:18;10.80;99.90
23100;DHT22;53791;50.696;4.396;2023-03-17T01:03:46;10.70;99.90
23100;DHT22;53791;50.696;4.396;2023-03-17T01:06:14;10.70;99.90
23100;DHT22;53791;50.696;4.396;2023-03-17T01:08:42;10.60;99.90
23100;DHT22;53791;50.696;4.396;2023-03-17T01:11:13;10.60;99.90
23100;DHT22;53791;50.696;4.396;2023-03-17T01:13:41;10.80;99.90
23100;DHT22;53791;50.696;4.396;2023-03-17T01:16:10;10.60;99.90
23100;DHT22;53791;50.696;4.396;2023-03-17T01:18:38;10.60;99.90
23100;DHT22;53791;50.696;4.396;2023-03-17T01:21:05;10.70;99.90
23100;DHT22;53791;50.696;4.396;2023-03-17T01:23:33;10.60;99.90
23100;DHT22;53791;50.696;4.396;2023-03-17T01:26:00;10.70;99.90
23100;DHT22;53791;50.696;4.396;2023-03-17T01:28:28;10.70;99.90
23100;DHT22;53791;50.696;4.396;2023-03-17T01:30:55;10.70;99.90
23100;DHT22;53791;50.696;4.396;2023-03-17T01:33:23;10.70;99.90
23100;DHT22;53791;50.696;4.396;2023-03-17T01:35:51;10.70;99.90
23100;DHT22;53791;50.696;4.396;2023-03-17T01:38:19;10.70;99.90
23100;DHT22;53791;50.696;4.396;2023-03-17T01:40:49;10.70;99.90
23100;DHT22;53791;50.696;4.396;2023-03-17T01:43:30;10.60;99.90
23100;DHT22;53791;50.696;4.396;2023-03-17T01:46:25;10.50;99.90
23100;DHT22;53791;50.696;4.396;2023-03-17T01:52:00;10.50;99.90
23100;DHT22;53791;50.696;4.396;2023-03-17T01:57:03;10.60;99.90
23100;DHT22;53791;50.696;4.396;2023-03-17T01:59:33;10.50;99.90
23100;DHT22;53791;50.696;4.396;2023-03-17T02:02:04;10.50;99.90
23100;DHT22;53791;50.696;4.396;2023-03-17T02:04:33;10.50;99.90
23100;DHT22;53791;50.696;4.396;2023-03-17T02:07:01;10.50;99.90
23100;DHT22;53791;50.696;4.396;2023-03-17T02:09:31;10.60;99.90
23100;DHT22;53791;50.696;4.396;2023-03-17T02:12:01;10.60;99.90
23100;DHT22;53791;50.696;4.396;2023-03-17T02:14:30;10.60;99.90
23100;DHT22;53791;50.696;4.396;2023-03-17T02:16:58;10.60;99.90
23100;DHT22;53791;50.696;4.396;2023-03-17T02:19:26;10.50;99.90
23100;DHT22;53791;50.696;4.396;2023-03-17T02:21:55;10.50;99.90
23100;DHT22;53791;50.696;4.396;2023-03-17T02:24:32;10.50;99.90
23100;DHT22;53791;50.696;4.396;2023-03-17T02:27:10;10.40;99.90
23100;DHT22;53791;50.696;4.396;2023-03-17T02:29:34;10.40;99.90
23100;DHT22;53791;50.696;4.396;2023-03-17T02:32:04;10.40;99.90
23100;DHT22;53791;50.696;4.396;2023-03-17T02:34:32;10.30;99.90
23100;DHT22;53791;50.696;4.396;2023-03-17T02:37:00;10.30;99.90
23100;DHT22;53791;50.696;4.396;2023-03-17T02:39:27;10.30;99.90
23100;DHT22;53791;50.696;4.396;2023-03-17T02:41:55;10.30;99.90
23100;DHT22;53791;50.696;4.396;2023-03-17T02:44:23;10.30;99.90
23100;DHT22;53791;50.696;4.396;2023-03-17T02:46:50;10.30;99.90
23100;DHT22;53791;50.696;4.396;2023-03-17T02:49:18;10.30;99.90
23100;DHT22;53791;50.696;4.396;2023-03-17T02:51:46;10.30;99.90
23100;DHT22;53791;50.696;4.396;2023-03-17T02:54:14;10.30;99.90
23100;DHT22;53791;50.696;4.396;2023-03-17T02:56:41;10.20;99.90
23100;DHT22;53791;50.696;4.396;2023-03-17T02:59:09;10.20;99.90
23100;DHT22;53791;50.696;4.396;2023-03-17T03:01:37;10.20;99.90
23100;DHT22;53791;50.696;4.396;2023-03-17T03:04:07;10.30;99.90
23100;DHT22;53791;50.696;4.396;2023-03-17T03:06:35;10.20;99.90
23100;DHT22;53791;50.696;4.396;2023-03-17T03:09:05;10.20;99.90
23100;DHT22;53791;50.696;4.396;2023-03-17T03:11:32;10.30;99.90
23100;DHT22;53791;50.696;4.396;2023-03-17T03:14:00;10.20;99.90
23100;DHT22;53791;50.696;4.396;2023-03-17T03:16:27;10.10;99.90
23100;DHT22;53791;50.696;4.396;2023-03-17T03:18:55;10.10;99.90
23100;DHT22;53791;50.696;4.396;2023-03-17T03:21:23;10.10;99.90
23100;DHT22;53791;50.696;4.396;2023-03-17T03:23:51;10.20;99.90
23100;DHT22;53791;50.696;4.396;2023-03-17T03:26:18;10.10;99.90
23100;DHT22;53791;50.696;4.396;2023-03-17T03:28:46;10.10;99.90
23100;DHT22;53791;50.696;4.396;2023-03-17T03:31:13;10.10;99.90
23100;DHT22;53791;50.696;4.396;2023-03-17T03:33:41;10.10;99.90
23100;DHT22;53791;50.696;4.396;2023-03-17T03:36:09;10.00;99.90
23100;DHT22;53791;50.696;4.396;2023-03-17T03:38:37;10.00;99.90
23100;DHT22;53791;50.696;4.396;2023-03-17T03:41:04;10.00;99.90
23100;DHT22;53791;50.696;4.396;2023-03-17T03:43:32;10.10;99.90
23100;DHT22;53791;50.696;4.396;2023-03-17T03:46:00;10.10;99.90
23100;DHT22;53791;50.696;4.396;2023-03-17T03:48:28;10.10;99.90
23100;DHT22;53791;50.696;4.396;2023-03-17T03:50:57;10.10;99.90
23100;DHT22;53791;50.696;4.396;2023-03-17T03:53:25;10.10;99.90
23100;DHT22;53791;50.696;4.396;2023-03-17T03:55:53;10.10;99.90
23100;DHT22;53791;50.696;4.396;2023-03-17T03:58:21;10.10;99.90
23100;DHT22;53791;50.696;4.396;2023-03-17T04:00:49;10.10;99.90
23100;DHT22;53791;50.696;4.396;2023-03-17T04:03:17;10.20;99.90
23100;DHT22;53791;50.696;4.396;2023-03-17T04:05:44;10.20;99.90
23100;DHT22;53791;50.696;4.396;2023-03-17T04:08:12;10.20;99.90
23100;DHT22;53791;50.696;4.396;2023-03-17T04:10:39;10.20;99.90
23100;DHT22;53791;50.696;4.396;2023-03-17T04:13:07;10.30;99.90
23100;DHT22;53791;50.696;4.396;2023-03-17T04:15:34;10.30;99.90
23100;DHT22;53791;50.696;4.396;2023-03-17T04:18:03;10.40;99.90
23100;DHT22;53791;50.696;4.396;2023-03-17T04:20:30;10.30;99.90
23100;DHT22;53791;50.696;4.396;2023-03-17T04:22:58;10.30;99.90
23100;DHT22;53791;50.696;4.396;2023-03-17T04:25:26;10.30;99.90
23100;DHT22;53791;50.696;4.396;2023-03-17T04:27:53;10.20;99.90
23100;DHT22;53791;50.696;4.396;2023-03-17T04:30:21;10.20;99.90
23100;DHT22;53791;50.696;4.396;2023-03-17T04:32:48;10.20;99.90
23100;DHT22;53791;50.696;4.396;2023-03-17T04:35:18;10.10;99.90
23100;DHT22;53791;50.696;4.396;2023-03-17T04:37:48;10.00;99.90
23100;DHT22;53791;50.696;4.396;2023-03-17T04:40:17;10.00;99.90
23100;DHT22;53791;50.696;4.396;2023-03-17T04:42:44;9.90;99.90
23100;DHT22;53791;50.696;4.396;2023-03-17T04:45:13;9.90;99.90
23100;DHT22;53791;50.696;4.396;2023-03-17T04:47:42;9.90;99.90
23100;DHT22;53791;50.696;4.396;2023-03-17T04:50:12;9.80;99.90
23100;DHT22;53791;50.696;4.396;2023-03-17T04:52:40;9.80;99.90
23100;DHT22;53791;50.696;4.396;2023-03-17T04:55:08;9.80;99.90
23100;DHT22;53791;50.696;4.396;2023-03-17T04:57:37;9.80;99.90
23100;DHT22;53791;50.696;4.396;2023-03-17T05:00:05;9.80;99.90
23100;DHT22;53791;50.696;4.396;2023-03-17T05:02:34;9.80;99.90
23100;DHT22;53791;50.696;4.396;2023-03-17T05:05:04;9.80;99.90
23100;DHT22;53791;50.696;4.396;2023-03-17T05:07:33;9.80;99.90
23100;DHT22;53791;50.696;4.396;2023-03-17T05:10:00;9.80;99.90
23100;DHT22;53791;50.696;4.396;2023-03-17T05:12:28;9.80;99.90
23100;DHT22;53791;50.696;4.396;2023-03-17T05:14:55;9.80;99.90
23100;DHT22;53791;50.696;4.396;2023-03-17T05:17:23;9.80;99.90
23100;DHT22;53791;50.696;4.396;2023-03-17T05:19:50;9.70;99.90
23100;DHT22;53791;50.696;4.396;2023-03-17T05:22:18;9.80;99.90
23100;DHT22;53791;50.696;4.396;2023-03-17T05:24:46;9.70;99.90
23100;DHT22;53791;50.696;4.396;2023-03-17T05:27:13;9.80;99.90
23100;DHT22;53791;50.696;4.396;2023-03-17T05:29:41;9.70;99.90
23100;DHT22;53791;50.696;4.396;2023-03-17T05:32:09;9.70;99.90
23100;DHT22;53791;50.696;4.396;2023-03-17T05:34:37;9.70;99.90
23100;DHT22;53791;50.696;4.396;2023-03-17T05:37:04;9.60;99.90
23100;DHT22;53791;50.696;4.396;2023-03-17T05:39:33;9.60;99.90
23100;DHT22;53791;50.696;4.396;2023-03-17T05:42:00;9.70;99.90
23100;DHT22;53791;50.696;4.396;2023-03-17T05:44:28;9.70;99.90
23100;DHT22;53791;50.696;4.396;2023-03-17T05:46:56;9.70;99.90
23100;DHT22;53791;50.696;4.396;2023-03-17T05:49:26;9.70;99.90
23100;DHT22;53791;50.696;4.396;2023-03-17T05:51:54;9.70;99.90
23100;DHT22;53791;50.696;4.396;2023-03-17T05:54:21;9.70;99.90
23100;DHT22;53791;50.696;4.396;2023-03-17T05:56:49;9.70;99.90
23100;DHT22;53791;50.696;4.396;2023-03-17T05:59:17;9.70;99.90
23100;DHT22;53791;50.696;4.396;2023-03-17T06:01:44;9.70;99.90
23100;DHT22;53791;50.696;4.396;2023-03-17T06:04:13;9.70;99.90
23100;DHT22;53791;50.696;4.396;2023-03-17T06:06:40;9.60;99.90
23100;DHT22;53791;50.696;4.396;2023-03-17T06:09:08;9.60;99.90
23100;DHT22;53791;50.696;4.396;2023-03-17T06:11:36;9.60;99.90
23100;DHT22;53791;50.696;4.396;2023-03-17T06:14:03;9.60;99.90
23100;DHT22;53791;50.696;4.396;2023-03-17T06:16:31;9.60;99.90
23100;DHT22;53791;50.696;4.396;2023-03-17T06:18:59;9.60;99.90
23100;DHT22;53791;50.696;4.396;2023-03-17T06:21:27;9.70;99.90
23100;DHT22;53791;50.696;4.396;2023-03-17T06:23:54;9.70;99.90
23100;DHT22;53791;50.696;4.396;2023-03-17T06:26:22;9.70;99.90
23100;DHT22;53791;50.696;4.396;2023-03-17T06:28:49;9.70;99.90
23100;DHT22;53791;50.696;4.396;2023-03-17T06:31:17;9.80;99.90
23100;DHT22;53791;50.696;4.396;2023-03-17T06:33:44;9.80;99.90
23100;DHT22;53791;50.696;4.396;2023-03-17T06:36:12;9.80;99.90
23100;DHT22;53791;50.696;4.396;2023-03-17T06:38:40;9.90;99.90
23100;DHT22;53791;50.696;4.396;2023-03-17T06:41:07;10.00;99.90
23100;DHT22;53791;50.696;4.396;2023-03-17T06:43:35;10.00;99.90
23100;DHT22;53791;50.696;4.396;2023-03-17T06:46:02;10.00;99.90
23100;DHT22;53791;50.696;4.396;2023-03-17T06:48:31;10.10;99.90
23100;DHT22;53791;50.696;4.396;2023-03-17T06:50:59;10.10;99.90
23100;DHT22;53791;50.696;4.396;2023-03-17T06:53:28;10.10;99.90
23100;DHT22;53791;50.696;4.396;2023-03-17T06:55:55;10.20;99.90
23100;DHT22;53791;50.696;4.396;2023-03-17T06:58:23;10.30;99.90
23100;DHT22;53791;50.696;4.396;2023-03-17T07:00:51;10.30;99.90
23100;DHT22;53791;50.696;4.396;2023-03-17T07:03:20;10.40;99.90
23100;DHT22;53791;50.696;4.396;2023-03-17T07:05:49;10.30;99.90
23100;DHT22;53791;50.696;4.396;2023-03-17T07:08:17;10.40;99.90
23100;DHT22;53791;50.696;4.396;2023-03-17T07:10:45;10.40;99.90
23100;DHT22;53791;50.696;4.396;2023-03-17T07:13:12;10.50;99.90
23100;DHT22;53791;50.696;4.396;2023-03-17T07:15:40;10.50;99.90
23100;DHT22;53791;50.696;4.396;2023-03-17T07:18:08;10.50;99.90
23100;DHT22;53791;50.696;4.396;2023-03-17T07:20:36;10.50;99.90
23100;DHT22;53791;50.696;4.396;2023-03-17T07:23:04;10.60;99.90
23100;DHT22;53791;50.696;4.396;2023-03-17T07:25:31;10.70;99.90
23100;DHT22;53791;50.696;4.396;2023-03-17T07:28:01;10.90;99.90
23100;DHT22;53791;50.696;4.396;2023-03-17T07:30:28;11.00;99.90
23100;DHT22;53791;50.696;4.396;2023-03-17T07:32:56;11.20;99.90
23100;DHT22;53791;50.696;4.396;2023-03-17T07:35:24;11.40;99.90
23100;DHT22;53791;50.696;4.396;2023-03-17T07:37:51;11.80;99.90
23100;DHT22;53791;50.696;4.396;2023-03-17T07:40:19;12.10;99.90
23100;DHT22;53791;50.696;4.396;2023-03-17T07:42:46;12.60;99.90
23100;DHT22;53791;50.696;4.396;2023-03-17T07:45:15;12.90;99.90
23100;DHT22;53791;50.696;4.396;2023-03-17T07:47:42;13.10;99.90
23100;DHT22;53791;50.696;4.396;2023-03-17T07:50:11;13.50;99.90
23100;DHT22;53791;50.696;4.396;2023-03-17T07:52:39;13.80;99.90
23100;DHT22;53791;50.696;4.396;2023-03-17T07:55:08;14.00;99.90
23100;DHT22;53791;50.696;4.396;2023-03-17T07:57:38;14.40;99.90
23100;DHT22;53791;50.696;4.396;2023-03-17T08:00:09;14.30;99.90
23100;DHT22;53791;50.696;4.396;2023-03-17T08:02:36;14.10;99.90
23100;DHT22;53791;50.696;4.396;2023-03-17T08:05:05;14.00;99.90
23100;DHT22;53791;50.696;4.396;2023-03-17T08:07:33;14.00;99.90
23100;DHT22;53791;50.696;4.396;2023-03-17T08:10:09;13.80;99.90
23100;DHT22;53791;50.696;4.396;2023-03-17T08:12:35;13.60;99.90
23100;DHT22;53791;50.696;4.396;2023-03-17T08:15:02;13.70;99.90
23100;DHT22;53791;50.696;4.396;2023-03-17T08:17:30;13.70;99.90
23100;DHT22;53791;50.696;4.396;2023-03-17T08:19:58;13.70;99.90
23100;DHT22;53791;50.696;4.396;2023-03-17T08:22:25;13.60;99.90
23100;DHT22;53791;50.696;4.396;2023-03-17T08:24:53;13.50;99.90
23100;DHT22;53791;50.696;4.396;2023-03-17T08:27:21;13.40;99.90
23100;DHT22;53791;50.696;4.396;2023-03-17T08:29:48;13.30;99.90
23100;DHT22;53791;50.696;4.396;2023-03-17T08:32:16;13.10;99.90
23100;DHT22;53791;50.696;4.396;2023-03-17T08:34:44;13.00;99.90
23100;DHT22;53791;50.696;4.396;2023-03-17T08:37:13;12.90;99.90
23100;DHT22;53791;50.696;4.396;2023-03-17T08:39:41;12.80;99.90
23100;DHT22;53791;50.696;4.396;2023-03-17T08:42:08;12.90;99.90
23100;DHT22;53791;50.696;4.396;2023-03-17T08:44:37;13.10;99.90
23100;DHT22;53791;50.696;4.396;2023-03-17T08:47:04;13.50;99.90
23100;DHT22;53791;50.696;4.396;2023-03-17T08:49:32;13.90;99.90
23100;DHT22;53791;50.696;4.396;2023-03-17T08:52:01;14.40;99.90
23100;DHT22;53791;50.696;4.396;2023-03-17T08:54:29;15.10;99.90
23100;DHT22;53791;50.696;4.396;2023-03-17T08:56:57;15.80;99.90
23100;DHT22;53791;50.696;4.396;2023-03-17T08:59:26;16.00;99.90
23100;DHT22;53791;50.696;4.396;2023-03-17T09:01:54;16.20;99.90
23100;DHT22;53791;50.696;4.396;2023-03-17T09:04:22;16.00;99.90
23100;DHT22;53791;50.696;4.396;2023-03-17T09:06:51;15.70;99.90
23100;DHT22;53791;50.696;4.396;2023-03-17T09:09:20;15.20;99.90
23100;DHT22;53791;50.696;4.396;2023-03-17T09:11:49;14.90;99.90
23100;DHT22;53791;50.696;4.396;2023-03-17T09:14:17;14.50;99.90
23100;DHT22;53791;50.696;4.396;2023-03-17T09:16:45;14.30;99.90
23100;DHT22;53791;50.696;4.396;2023-03-17T09:19:14;14.20;99.90
23100;DHT22;53791;50.696;4.396;2023-03-17T09:21:42;13.90;99.90
23100;DHT22;53791;50.696;4.396;2023-03-17T09:24:10;13.80;99.90
23100;DHT22;53791;50.696;4.396;2023-03-17T09:26:38;13.80;99.90
23100;DHT22;53791;50.696;4.396;2023-03-17T09:29:05;13.90;99.90
23100;DHT22;53791;50.696;4.396;2023-03-17T09:31:33;13.90;99.90
23100;DHT22;53791;50.696;4.396;2023-03-17T09:34:04;13.90;99.90
23100;DHT22;53791;50.696;4.396;2023-03-17T09:36:32;14.10;99.90
23100;DHT22;53791;50.696;4.396;2023-03-17T09:39:00;14.40;99.90
23100;DHT22;53791;50.696;4.396;2023-03-17T09:49:59;15.00;99.90
23100;DHT22;53791;50.696;4.396;2023-03-17T09:52:30;15.00;99.90
23100;DHT22;53791;50.696;4.396;2023-03-17T09:54:58;15.10;99.90
23100;DHT22;53791;50.696;4.396;2023-03-17T09:57:38;15.30;99.90
23100;DHT22;53791;50.696;4.396;2023-03-17T10:00:10;15.60;99.90
23100;DHT22;53791;50.696;4.396;2023-03-17T10:02:35;16.10;99.90
23100;DHT22;53791;50.696;4.396;2023-03-17T10:05:21;16.30;99.90
23100;DHT22;53791;50.696;4.396;2023-03-17T10:10:31;16.90;99.90
23100;DHT22;53791;50.696;4.396;2023-03-17T10:13:11;17.10;99.90
23100;DHT22;53791;50.696;4.396;2023-03-17T10:15:53;17.20;99.90
23100;DHT22;53791;50.696;4.396;2023-03-17T10:18:23;17.80;99.90
23100;DHT22;53791;50.696;4.396;2023-03-17T10:20:56;17.90;99.90
23100;DHT22;53791;50.696;4.396;2023-03-17T10:23:31;17.90;99.90
23100;DHT22;53791;50.696;4.396;2023-03-17T10:25:57;18.10;99.90
23100;DHT22;53791;50.696;4.396;2023-03-17T10:28:30;18.10;99.90
23100;DHT22;53791;50.696;4.396;2023-03-17T10:31:47;18.50;99.90
23100;DHT22;53791;50.696;4.396;2023-03-17T10:33:31;18.60;99.90
23100;DHT22;53791;50.696;4.396;2023-03-17T10:36:06;18.70;99.90
23100;DHT22;53791;50.696;4.396;2023-03-17T10:38:35;18.80;99.90
23100;DHT22;53791;50.696;4.396;2023-03-17T10:41:05;18.70;99.90
23100;DHT22;53791;50.696;4.396;2023-03-17T10:43:43;18.50;99.90
23100;DHT22;53791;50.696;4.396;2023-03-17T10:46:22;18.30;99.90
23100;DHT22;53791;50.696;4.396;2023-03-17T10:48:55;18.30;99.90
23100;DHT22;53791;50.696;4.396;2023-03-17T10:51:32;18.50;99.90
23100;DHT22;53791;50.696;4.396;2023-03-17T10:54:06;18.80;99.90
23100;DHT22;53791;50.696;4.396;2023-03-17T10:56:34;18.60;99.90
23100;DHT22;53791;50.696;4.396;2023-03-17T10:59:26;18.60;99.90
23100;DHT22;53791;50.696;4.396;2023-03-17T11:01:56;18.80;99.90
23100;DHT22;53791;50.696;4.396;2023-03-17T11:04:31;18.70;99.90
23100;DHT22;53791;50.696;4.396;2023-03-17T11:07:04;18.70;99.90
23100;DHT22;53791;50.696;4.396;2023-03-17T11:09:35;18.90;99.90
23100;DHT22;53791;50.696;4.396;2023-03-17T11:12:17;19.10;99.90
23100;DHT22;53791;50.696;4.396;2023-03-17T11:14:36;18.90;99.90
23100;DHT22;53791;50.696;4.396;2023-03-17T11:17:26;19.40;99.90
23100;DHT22;53791;50.696;4.396;2023-03-17T11:22:27;19.70;99.90
23100;DHT22;53791;50.696;4.396;2023-03-17T11:25:15;19.60;99.90
23100;DHT22;53791;50.696;4.396;2023-03-17T11:28:12;19.50;99.90
23100;DHT22;53791;50.696;4.396;2023-03-17T11:30:41;19.40;99.90
23100;DHT22;53791;50.696;4.396;2023-03-17T11:33:25;19.50;99.90
23100;DHT22;53791;50.696;4.396;2023-03-17T11:36:25;19.70;99.90
23100;DHT22;53791;50.696;4.396;2023-03-17T11:38:59;19.90;99.90
23100;DHT22;53791;50.696;4.396;2023-03-17T11:44:29;20.10;99.90
23100;DHT22;53791;50.696;4.396;2023-03-17T11:47:03;20.00;99.90
23100;DHT22;53791;50.696;4.396;2023-03-17T11:49:38;19.70;99.90
23100;DHT22;53791;50.696;4.396;2023-03-17T11:52:29;19.60;99.90
23100;DHT22;53791;50.696;4.396;2023-03-17T11:55:19;19.80;99.90
23100;DHT22;53791;50.696;4.396;2023-03-17T11:57:57;19.80;99.90
23100;DHT22;53791;50.696;4.396;2023-03-17T12:00:30;19.90;99.90
23100;DHT22;53791;50.696;4.396;2023-03-17T12:03:18;20.00;99.90
23100;DHT22;53791;50.696;4.396;2023-03-17T12:05:42;20.00;99.90
23100;DHT22;53791;50.696;4.396;2023-03-17T12:11:14;20.40;99.90
23100;DHT22;53791;50.696;4.396;2023-03-17T12:13:47;20.80;99.90
23100;DHT22;53791;50.696;4.396;2023-03-17T12:16:37;21.10;99.90
23100;DHT22;53791;50.696;4.396;2023-03-17T12:19:22;21.20;99.90
23100;DHT22;53791;50.696;4.396;2023-03-17T12:21:54;21.00;99.90
23100;DHT22;53791;50.696;4.396;2023-03-17T12:26:56;21.00;99.90
23100;DHT22;53791;50.696;4.396;2023-03-17T12:29:41;21.10;99.90
23100;DHT22;53791;50.696;4.396;2023-03-17T12:32:19;20.90;99.90
23100;DHT22;53791;50.696;4.396;2023-03-17T12:34:58;21.10;99.90
23100;DHT22;53791;50.696;4.396;2023-03-17T12:37:27;21.30;99.90
23100;DHT22;53791;50.696;4.396;2023-03-17T12:40:02;21.40;99.90
23100;DHT22;53791;50.696;4.396;2023-03-17T12:48:03;21.30;99.90
23100;DHT22;53791;50.696;4.396;2023-03-17T12:55:51;21.90;99.90
23100;DHT22;53791;50.696;4.396;2023-03-17T12:58:36;22.00;99.90
23100;DHT22;53791;50.696;4.396;2023-03-17T13:01:19;21.60;99.90
23100;DHT22;53791;50.696;4.396;2023-03-17T13:03:56;21.70;99.90
23100;DHT22;53791;50.696;4.396;2023-03-17T13:06:24;21.50;99.90
23100;DHT22;53791;50.696;4.396;2023-03-17T13:08:52;21.20;99.90
23100;DHT22;53791;50.696;4.396;2023-03-17T13:11:28;21.00;99.90
23100;DHT22;53791;50.696;4.396;2023-03-17T13:16:44;21.10;99.90
23100;DHT22;53791;50.696;4.396;2023-03-17T13:19:24;20.90;99.90
23100;DHT22;53791;50.696;4.396;2023-03-17T13:22:22;20.60;99.90
23100;DHT22;53791;50.696;4.396;2023-03-17T13:24:46;20.40;99.90
23100;DHT22;53791;50.696;4.396;2023-03-17T13:32:36;19.60;99.90
23100;DHT22;53791;50.696;4.396;2023-03-17T13:35:21;19.60;99.90
23100;DHT22;53791;50.696;4.396;2023-03-17T13:38:10;19.40;99.90
23100;DHT22;53791;50.696;4.396;2023-03-17T13:43:38;19.30;99.90
23100;DHT22;53791;50.696;4.396;2023-03-17T13:46:24;19.20;99.90
23100;DHT22;53791;50.696;4.396;2023-03-17T13:48:50;19.30;99.90
23100;DHT22;53791;50.696;4.396;2023-03-17T13:51:23;19.20;99.90
23100;DHT22;53791;50.696;4.396;2023-03-17T13:53:57;18.90;99.90
23100;DHT22;53791;50.696;4.396;2023-03-17T13:56:46;18.80;99.90
23100;DHT22;53791;50.696;4.396;2023-03-17T13:59:32;18.70;99.90
23100;DHT22;53791;50.696;4.396;2023-03-17T14:01:56;18.60;99.90
23100;DHT22;53791;50.696;4.396;2023-03-17T14:04:34;18.50;99.90
23100;DHT22;53791;50.696;4.396;2023-03-17T14:07:04;18.50;99.90
23100;DHT22;53791;50.696;4.396;2023-03-17T14:09:38;18.40;99.90
23100;DHT22;53791;50.696;4.396;2023-03-17T14:15:04;18.50;99.90
23100;DHT22;53791;50.696;4.396;2023-03-17T14:17:47;18.60;99.90
23100;DHT22;53791;50.696;4.396;2023-03-17T14:20:22;18.70;99.90
23100;DHT22;53791;50.696;4.396;2023-03-17T14:22:53;18.80;99.90
23100;DHT22;53791;50.696;4.396;2023-03-17T14:25:24;18.80;99.90
23100;DHT22;53791;50.696;4.396;2023-03-17T14:27:55;18.80;99.90
23100;DHT22;53791;50.696;4.396;2023-03-17T14:30:25;18.70;99.90
23100;DHT22;53791;50.696;4.396;2023-03-17T14:33:20;18.70;99.90
23100;DHT22;53791;50.696;4.396;2023-03-17T14:35:35;18.60;99.90
23100;DHT22;53791;50.696;4.396;2023-03-17T14:38:24;18.70;99.90
23100;DHT22;53791;50.696;4.396;2023-03-17T14:41:00;18.70;99.90
23100;DHT22;53791;50.696;4.396;2023-03-17T14:43:30;18.70;99.90
23100;DHT22;53791;50.696;4.396;2023-03-17T14:46:00;18.60;99.90
23100;DHT22;53791;50.696;4.396;2023-03-17T14:48:36;18.80;99.90
23100;DHT22;53791;50.696;4.396;2023-03-17T14:51:07;18.80;99.90
23100;DHT22;53791;50.696;4.396;2023-03-17T14:53:39;18.80;99.90
23100;DHT22;53791;50.696;4.396;2023-03-17T14:56:09;18.70;99.90
23100;DHT22;53791;50.696;4.396;2023-03-17T14:58:44;18.60;99.90
23100;DHT22;53791;50.696;4.396;2023-03-17T15:01:22;18.40;99.90
23100;DHT22;53791;50.696;4.396;2023-03-17T15:03:57;18.20;99.90
23100;DHT22;53791;50.696;4.396;2023-03-17T15:06:27;18.20;99.90
23100;DHT22;53791;50.696;4.396;2023-03-17T15:09:17;18.10;99.90
23100;DHT22;53791;50.696;4.396;2023-03-17T15:11:45;18.00;99.90
23100;DHT22;53791;50.696;4.396;2023-03-17T15:14:33;17.90;99.90
23100;DHT22;53791;50.696;4.396;2023-03-17T15:17:03;17.80;99.90
23100;DHT22;53791;50.696;4.396;2023-03-17T15:19:42;17.80;99.90
23100;DHT22;53791;50.696;4.396;2023-03-17T15:22:38;17.70;99.90
23100;DHT22;53791;50.696;4.396;2023-03-17T15:27:46;17.80;99.90
23100;DHT22;53791;50.696;4.396;2023-03-17T15:30:15;17.80;99.90
23100;DHT22;53791;50.696;4.396;2023-03-17T15:32:43;17.90;99.90
23100;DHT22;53791;50.696;4.396;2023-03-17T15:35:12;17.70;99.90
23100;DHT22;53791;50.696;4.396;2023-03-17T15:37:40;17.60;99.90
23100;DHT22;53791;50.696;4.396;2023-03-17T15:40:08;17.50;99.90
23100;DHT22;53791;50.696;4.396;2023-03-17T15:42:37;17.50;99.90
23100;DHT22;53791;50.696;4.396;2023-03-17T15:45:05;17.50;99.90
23100;DHT22;53791;50.696;4.396;2023-03-17T15:47:35;17.40;99.90
23100;DHT22;53791;50.696;4.396;2023-03-17T15:50:17;17.20;99.90
23100;DHT22;53791;50.696;4.396;2023-03-17T15:52:45;17.10;99.90
23100;DHT22;53791;50.696;4.396;2023-03-17T15:55:21;16.90;99.90
23100;DHT22;53791;50.696;4.396;2023-03-17T15:57:49;17.00;99.90
23100;DHT22;53791;50.696;4.396;2023-03-17T16:00:20;17.00;99.90
23100;DHT22;53791;50.696;4.396;2023-03-17T16:02:50;16.90;99.90
23100;DHT22;53791;50.696;4.396;2023-03-17T16:05:22;16.70;99.90
23100;DHT22;53791;50.696;4.396;2023-03-17T16:07:50;16.70;99.90
23100;DHT22;53791;50.696;4.396;2023-03-17T16:10:27;16.70;99.90
23100;DHT22;53791;50.696;4.396;2023-03-17T16:12:56;16.60;99.90
23100;DHT22;53791;50.696;4.396;2023-03-17T16:15:26;16.60;99.90
23100;DHT22;53791;50.696;4.396;2023-03-17T16:17:58;16.60;99.90
23100;DHT22;53791;50.696;4.396;2023-03-17T16:20:32;16.60;99.90
23100;DHT22;53791;50.696;4.396;2023-03-17T16:25:39;16.60;99.90
23100;DHT22;53791;50.696;4.396;2023-03-17T16:28:15;16.50;99.90
23100;DHT22;53791;50.696;4.396;2023-03-17T16:30:40;16.50;99.90
23100;DHT22;53791;50.696;4.396;2023-03-17T16:33:26;16.50;99.90
23100;DHT22;53791;50.696;4.396;2023-03-17T16:35:48;16.40;99.90
23100;DHT22;53791;50.696;4.396;2023-03-17T16:38:22;16.40;99.90
23100;DHT22;53791;50.696;4.396;2023-03-17T16:40:51;16.40;99.90
23100;DHT22;53791;50.696;4.396;2023-03-17T16:43:24;16.30;99.90
23100;DHT22;53791;50.696;4.396;2023-03-17T16:46:00;16.20;99.90
23100;DHT22;53791;50.696;4.396;2023-03-17T16:48:29;16.20;99.90
23100;DHT22;53791;50.696;4.396;2023-03-17T16:50:57;16.20;99.90
23100;DHT22;53791;50.696;4.396;2023-03-17T16:53:25;16.20;99.90